This is the latest recevied weather packets stored in our database for station/object KB0BS-13. If no packets are shown the sender has not sent any weather packets the latest 10 day(s).
| Time | Temp. | Humidity | Pressure | Rain* | Wind** | Luminosity | Snow |
|---|---|---|---|---|---|---|---|
| 1777867024 | 5.56° C | 97% | 1003 hPa | 0 mm | - | 0 W/m² | - |
| 1777866722 | 5.56° C | 97% | 1003.1 hPa | 0 mm | - | 0 W/m² | - |
| 1777865813 | 5° C | 98% | 1003.4 hPa | 0 mm | - | 0 W/m² | - |
| 1777865510 | 5° C | 98% | 1003.3 hPa | 0 mm | - | 0 W/m² | - |
| 1777865207 | 5.56° C | 98% | 1003.4 hPa | 0 mm | - | 0 W/m² | - |
| 1777863085 | 6.11° C | 97% | 1003.8 hPa | 0 mm | - | 0 W/m² | - |
| 1777847322 | 8.33° C | 95% | 1003.9 hPa | 0 mm | - | 37 W/m² | - |
| 1777845506 | 8.89° C | 88% | 1004.5 hPa | 1.27 mm | - | 14 W/m² | - |
| 1777844598 | 10.56° C | 77% | 1004 hPa | 0 mm | - | 26 W/m² | - |
| 1777844296 | 11.11° C | 73% | 1003.8 hPa | 0 mm | - | 38 W/m² | - |
| 1777843993 | 11.67° C | 69% | 1003.5 hPa | 0 mm | - | 50 W/m² | - |
| 1777843690 | 11.67° C | 69% | 1003.5 hPa | 0 mm | - | 73 W/m² | - |
| 1777843388 | 12.22° C | 67% | 1003.4 hPa | 0 mm | - | 90 W/m² | - |
| 1777843085 | 12.22° C | 66% | 1003.3 hPa | 0 mm | - | 125 W/m² | - |
| 1777842781 | 12.78° C | 65% | 1003.1 hPa | 0 mm | - | 171 W/m² | - |
| 1777842481 | 12.78° C | 63% | 1003.3 hPa | 0 mm | - | 170 W/m² | - |
| 1777842179 | 12.78° C | 63% | 1003.2 hPa | 0 mm | - | 324 W/m² | - |
| 1777841874 | 12.78° C | 62% | 1003.3 hPa | 0 mm | - | 362 W/m² | - |
| 1777840662 | 13.89° C | 59% | 1003.3 hPa | 0 mm | - | 505 W/m² | - |
| 1777840360 | 12.78° C | 61% | 1003.8 hPa | 0 mm | - | 509 W/m² | - |
| 1777840056 | 12.78° C | 61% | 1004.1 hPa | 0 mm | - | 378 W/m² | - |
| 1777839754 | 12.78° C | 62% | 1004 hPa | 0 mm | - | 259 W/m² | - |
| 1777838846 | 12.78° C | 61% | 1004.3 hPa | 0 mm | - | 515 W/m² | - |
| 1777838239 | 12.78° C | 65% | 1004.1 hPa | 0 mm | - | 523 W/m² | - |
| 1777837936 | 11.67° C | 69% | 1004.4 hPa | 0 mm | - | 567 W/m² | - |
* Rain latest hour (hover to see other rain measurements)
** Current wind speed in m/s (hover to see current wind gust speed)